Time;durP1;ratioP1;P1;durP2;ratioP2;P2;SDS_P1;SDS_P2;PMS_P1;PMS_P2;Temp;Humidity;BMP_temperature;BMP_pressure;BME280_temperature;BME280_humidity;BME280_pressure;Samples;Min_cycle;Max_cycle;Signal;HPM_P1;HPM_P2
2023/09/23 00:01:25;;;;;;;3.70;1.30;;;;;;;;;;4131214;28;20042;-62
2023/09/23 00:03:33;;;;;;;1.50;1.40;;;;;;;;;;4131972;28;20128;-62
2023/09/23 00:05:39;;;;;;;1.50;1.40;;;;;;;;;;4131950;28;20050;-62
2023/09/23 00:07:43;;;;;;;1.13;1.00;;;;;;;;;;4131997;28;20134;-62
2023/09/23 00:09:46;;;;;;;1.55;1.20;;;;;;;;;;4131747;28;20049;-62
2023/09/23 00:11:50;;;;;;;2.40;1.10;;;;;;;;;;4132150;28;20042;-62
2023/09/23 00:13:53;;;;;;;1.10;1.10;;;;;;;;;;4132194;28;20069;-61
2023/09/23 00:15:56;;;;;;;2.63;1.35;;;;;;;;;;4131660;28;20056;-61
2023/09/23 00:18:00;;;;;;;1.30;1.20;;;;;;;;;;4132169;28;20043;-62
2023/09/23 00:20:27;;;;;;;1.20;1.20;;;;;;;;;;4130890;28;20069;-62
2023/09/23 00:22:26;;;;;;;2.35;1.10;;;;;;;;;;4131859;28;20388;-62
2023/09/23 00:24:28;;;;;;;0.90;0.90;;;;;;;;;;4131816;28;20750;-63
2023/09/23 00:26:30;;;;;;;1.00;1.00;;;;;;;;;;4131450;28;20129;-63
2023/09/23 00:28:31;;;;;;;2.92;1.38;;;;;;;;;;4131701;28;20050;-63
2023/09/23 00:30:33;;;;;;;0.98;0.98;;;;;;;;;;4131745;28;20034;-63
2023/09/23 00:32:37;;;;;;;0.90;0.90;;;;;;;;;;4131816;28;20049;-63
2023/09/23 00:34:40;;;;;;;1.20;0.90;;;;;;;;;;4131609;28;20089;-63
2023/09/23 00:36:42;;;;;;;0.90;0.90;;;;;;;;;;4131746;28;20133;-63
2023/09/23 00:38:43;;;;;;;0.90;0.90;;;;;;;;;;4131529;28;20054;-63
2023/09/23 00:40:45;;;;;;;0.80;0.80;;;;;;;;;;4131786;28;20073;-63
2023/09/23 00:42:47;;;;;;;0.90;0.90;;;;;;;;;;4131868;28;20050;-64
2023/09/23 00:44:50;;;;;;;2.65;1.00;;;;;;;;;;4131545;28;20050;-62
2023/09/23 00:46:51;;;;;;;;;;;;;;;;;;4146650;28;20154;-61
2023/09/23 00:48:53;;;;;;;0.90;0.90;;;;;;;;;;4131493;28;19929;-61
2023/09/23 00:50:56;;;;;;;1.67;1.65;;;;;;;;;;4131443;28;20038;-61
2023/09/23 00:52:58;;;;;;;1.23;1.23;;;;;;;;;;4131723;28;20050;-61
2023/09/23 00:55:00;;;;;;;2.13;2.03;;;;;;;;;;4128601;28;21417;-62
2023/09/23 00:57:03;;;;;;;2.15;2.05;;;;;;;;;;4115672;28;20043;-62
2023/09/23 00:59:07;;;;;;;1.40;1.40;;;;;;;;;;4124231;28;20119;-62
2023/09/23 01:01:10;;;;;;;1.35;1.20;;;;;;;;;;4131437;28;20042;-62
2023/09/23 01:03:11;;;;;;;;;;;;;;;;;;4131772;28;20067;-63
2023/09/23 01:05:15;;;;;;;1.00;1.00;;;;;;;;;;4130764;28;19926;-63
2023/09/23 01:07:17;;;;;;;1.08;1.00;;;;;;;;;;4131247;28;20038;-62
2023/09/23 01:09:20;;;;;;;1.00;1.00;;;;;;;;;;4131349;28;20038;-63
2023/09/23 01:11:22;;;;;;;1.20;1.20;;;;;;;;;;4131388;28;20498;-62
2023/09/23 01:13:24;;;;;;;1.00;1.00;;;;;;;;;;4131491;28;20384;-63
2023/09/23 01:15:28;;;;;;;2.35;1.50;;;;;;;;;;4131364;28;20034;-63
2023/09/23 01:17:30;;;;;;;1.38;1.35;;;;;;;;;;4131347;28;20133;-63
2023/09/23 01:19:32;;;;;;;1.20;1.20;;;;;;;;;;4131290;28;20475;-62
2023/09/23 01:21:33;;;;;;;1.65;1.55;;;;;;;;;;4131239;28;20089;-63
2023/09/23 01:23:36;;;;;;;1.92;1.92;;;;;;;;;;4131290;28;20077;-63
2023/09/23 01:25:38;;;;;;;1.63;1.63;;;;;;;;;;4131477;28;20075;-63
2023/09/23 01:27:40;;;;;;;2.78;2.55;;;;;;;;;;4122225;28;20049;-63
2023/09/23 01:29:42;;;;;;;3.42;3.13;;;;;;;;;;4124675;28;20042;-63
2023/09/23 01:31:50;;;;;;;3.58;3.47;;;;;;;;;;4130966;28;20422;-63
2023/09/23 01:33:52;;;;;;;2.83;2.70;;;;;;;;;;4131249;28;20506;-64
2023/09/23 01:35:57;;;;;;;4.20;4.00;;;;;;;;;;4131160;28;20053;-63
2023/09/23 01:37:59;;;;;;;2.80;2.80;;;;;;;;;;4131079;28;20074;-63
2023/09/23 01:40:02;;;;;;;2.15;2.05;;;;;;;;;;4132145;28;20038;-63
2023/09/23 01:42:04;;;;;;;1.30;1.30;;;;;;;;;;4134389;28;20089;-63
2023/09/23 01:44:06;;;;;;;1.45;1.45;;;;;;;;;;4134264;28;20049;-63
2023/09/23 01:46:08;;;;;;;1.40;1.30;;;;;;;;;;4133971;28;20049;-64
2023/09/23 01:48:10;;;;;;;1.80;1.70;;;;;;;;;;4134250;28;20438;-63
2023/09/23 01:50:13;;;;;;;1.30;1.30;;;;;;;;;;4134192;28;20277;-63
2023/09/23 01:52:17;;;;;;;1.10;1.10;;;;;;;;;;4123625;28;20043;-63
2023/09/23 01:54:19;;;;;;;1.00;1.00;;;;;;;;;;4119604;28;20046;-63
2023/09/23 01:56:20;;;;;;;2.30;0.98;;;;;;;;;;4134154;28;20070;-64
2023/09/23 01:58:22;;;;;;;1.58;1.20;;;;;;;;;;4120093;28;20045;-63
2023/09/23 02:00:28;;;;;;;;;;;;;;;;;;4118307;28;20094;-62
2023/09/23 02:02:30;;;;;;;1.58;1.20;;;;;;;;;;4128996;28;19992;-62
2023/09/23 02:04:35;;;;;;;1.00;1.00;;;;;;;;;;4133705;28;20050;-62
2023/09/23 02:06:38;;;;;;;1.67;1.00;;;;;;;;;;4133816;28;20127;-63
2023/09/23 02:08:40;;;;;;;1.83;1.10;;;;;;;;;;4133732;28;20042;-63
2023/09/23 02:10:45;;;;;;;1.73;1.00;;;;;;;;;;4133832;28;20046;-62
2023/09/23 02:12:47;;;;;;;1.35;0.90;;;;;;;;;;4133868;28;20125;-62
2023/09/23 02:14:50;;;;;;;1.03;1.03;;;;;;;;;;4133784;28;20092;-62
2023/09/23 02:16:54;;;;;;;0.93;0.93;;;;;;;;;;4133768;28;20340;-62
2023/09/23 02:18:56;;;;;;;1.20;1.10;;;;;;;;;;4131081;28;20071;-63
2023/09/23 02:20:58;;;;;;;1.70;1.00;;;;;;;;;;4119080;28;20101;-63
2023/09/23 02:22:59;;;;;;;1.52;1.00;;;;;;;;;;4117573;28;20101;-63
2023/09/23 02:25:01;;;;;;;1.60;1.03;;;;;;;;;;4117535;28;20097;-62
2023/09/23 02:27:03;;;;;;;0.90;0.90;;;;;;;;;;4117787;28;20035;-63
2023/09/23 02:29:06;;;;;;;2.85;1.00;;;;;;;;;;4117506;28;20045;-63
2023/09/23 02:31:08;;;;;;;0.90;0.90;;;;;;;;;;4117424;28;20043;-64
2023/09/23 02:33:10;;;;;;;1.63;1.52;;;;;;;;;;4117779;28;20109;-63
2023/09/23 02:35:12;;;;;;;1.13;1.00;;;;;;;;;;4117354;28;20039;-63
2023/09/23 02:37:14;;;;;;;1.95;1.10;;;;;;;;;;4117390;28;20043;-63
2023/09/23 02:39:17;;;;;;;1.08;0.98;;;;;;;;;;4117154;28;20050;-63
2023/09/23 02:41:18;;;;;;;;;;;;;;;;;;4117697;28;20046;-63
2023/09/23 02:43:20;;;;;;;0.95;0.90;;;;;;;;;;4117276;28;19921;-64
2023/09/23 02:45:22;;;;;;;1.70;1.10;;;;;;;;;;4117195;28;20042;-63
2023/09/23 02:47:24;;;;;;;1.25;1.10;;;;;;;;;;4126248;28;20042;-64
2023/09/23 02:49:25;;;;;;;1.00;1.00;;;;;;;;;;4117180;28;20070;-64
2023/09/23 02:51:27;;;;;;;1.20;1.20;;;;;;;;;;4124934;28;20038;-64
2023/09/23 02:53:30;;;;;;;1.00;1.00;;;;;;;;;;4133461;28;20081;-63
2023/09/23 02:55:32;;;;;;;1.08;1.00;;;;;;;;;;4133051;28;20082;-64
2023/09/23 02:57:37;;;;;;;2.90;1.00;;;;;;;;;;4132321;28;20403;-64
2023/09/23 02:59:42;;;;;;;1.00;1.00;;;;;;;;;;4133581;28;20046;-65
2023/09/23 03:01:51;;;;;;;1.45;1.00;;;;;;;;;;4133093;28;20053;-64
2023/09/23 03:03:55;;;;;;;1.48;0.90;;;;;;;;;;4133020;28;20125;-63
2023/09/23 03:05:57;;;;;;;1.10;1.10;;;;;;;;;;4133018;28;20458;-64
2023/09/23 03:07:59;;;;;;;1.00;1.00;;;;;;;;;;4132751;28;20078;-64
2023/09/23 03:10:04;;;;;;;1.48;0.90;;;;;;;;;;4132882;28;20054;-64
2023/09/23 03:12:06;;;;;;;3.40;1.00;;;;;;;;;;4133019;28;20066;-63
2023/09/23 03:14:12;;;;;;;1.10;0.90;;;;;;;;;;4132816;28;20038;-64
2023/09/23 03:16:18;;;;;;;1.25;1.25;;;;;;;;;;4132930;28;20289;-63
2023/09/23 03:18:33;;;;;;;2.60;1.00;;;;;;;;;;4132824;28;20100;-64
2023/09/23 03:20:36;;;;;;;1.23;1.13;;;;;;;;;;4132837;28;20071;-65
2023/09/23 03:22:39;;;;;;;4.22;1.10;;;;;;;;;;4132725;28;20058;-64
2023/09/23 03:24:40;;;;;;;;;;;;;;;;;;4133187;28;20056;-65
2023/09/23 03:26:46;;;;;;;0.90;0.90;;;;;;;;;;4132550;28;19933;-64
2023/09/23 03:28:49;;;;;;;2.15;1.00;;;;;;;;;;4116520;28;20053;-65
2023/09/23 03:30:58;;;;;;;1.00;1.00;;;;;;;;;;4116482;28;20074;-64
2023/09/23 03:32:59;;;;;;;1.00;1.00;;;;;;;;;;4116578;28;20495;-64
2023/09/23 03:35:01;;;;;;;1.10;1.10;;;;;;;;;;4116507;28;20403;-64
2023/09/23 03:37:04;;;;;;;1.65;0.90;;;;;;;;;;4116667;28;20046;-65
2023/09/23 03:39:12;;;;;;;1.10;1.00;;;;;;;;;;4116420;28;20050;-64
2023/09/23 03:41:14;;;;;;;1.00;1.00;;;;;;;;;;4116491;28;20042;-65
2023/09/23 03:43:15;;;;;;;1.45;1.00;;;;;;;;;;4116968;28;20098;-64
2023/09/23 03:45:17;;;;;;;0.97;0.97;;;;;;;;;;4117221;28;20077;-64
2023/09/23 03:47:19;;;;;;;1.13;1.00;;;;;;;;;;4126759;28;20093;-65
2023/09/23 03:49:21;;;;;;;2.15;1.20;;;;;;;;;;4132331;28;20041;-64
2023/09/23 03:51:24;;;;;;;1.02;1.00;;;;;;;;;;4132350;28;20042;-64
2023/09/23 03:53:25;;;;;;;1.30;1.13;;;;;;;;;;4132339;28;20050;-64
2023/09/23 03:55:27;;;;;;;1.10;1.10;;;;;;;;;;4132142;28;20489;-64
2023/09/23 03:57:29;;;;;;;2.95;1.15;;;;;;;;;;4126989;28;20039;-64
2023/09/23 03:59:31;;;;;;;1.00;1.00;;;;;;;;;;4116086;28;20051;-64
2023/09/23 04:01:36;;;;;;;1.63;1.00;;;;;;;;;;4116082;28;20054;-64
2023/09/23 04:03:38;;;;;;;1.83;1.00;;;;;;;;;;4115700;28;20097;-64
2023/09/23 04:05:40;;;;;;;2.67;1.20;;;;;;;;;;4115940;28;20076;-64
2023/09/23 04:07:50;;;;;;;1.02;1.00;;;;;;;;;;4115932;28;20042;-64
2023/09/23 04:09:52;;;;;;;1.10;1.00;;;;;;;;;;4116259;28;20049;-65
2023/09/23 04:11:54;;;;;;;1.48;0.90;;;;;;;;;;4127124;28;20034;-64
2023/09/23 04:13:56;;;;;;;2.17;1.00;;;;;;;;;;4131987;28;20044;-64
2023/09/23 04:16:01;;;;;;;1.83;1.15;;;;;;;;;;4126211;28;20066;-65
2023/09/23 04:18:03;;;;;;;1.42;1.30;;;;;;;;;;4120314;28;20518;-65
2023/09/23 04:20:27;;;;;;;1.00;1.00;;;;;;;;;;4128885;28;20513;-65
2023/09/23 04:22:27;;;;;;;1.00;1.00;;;;;;;;;;4118438;28;20047;-64
2023/09/23 04:24:29;;;;;;;2.97;1.10;;;;;;;;;;4115657;28;20054;-64
2023/09/23 04:26:31;;;;;;;1.98;1.17;;;;;;;;;;4115710;28;20097;-65
2023/09/23 04:28:33;;;;;;;1.00;1.00;;;;;;;;;;4115864;28;20388;-64
2023/09/23 04:30:35;;;;;;;1.20;1.20;;;;;;;;;;4115752;28;20122;-64
2023/09/23 04:32:40;;;;;;;1.65;1.20;;;;;;;;;;4115631;28;20133;-65
2023/09/23 04:34:42;;;;;;;1.45;1.35;;;;;;;;;;4115630;28;20132;-65
2023/09/23 04:36:46;;;;;;;2.85;2.70;;;;;;;;;;4115667;28;20043;-64
2023/09/23 04:38:48;;;;;;;3.53;3.42;;;;;;;;;;4115612;28;20046;-65
2023/09/23 04:40:50;;;;;;;2.85;2.72;;;;;;;;;;4117599;28;20058;-64
2023/09/23 04:42:52;;;;;;;;;;;;;;;;;;4116012;28;20070;-65
2023/09/23 04:44:54;;;;;;;3.58;3.47;;;;;;;;;;4131551;28;20010;-64
2023/09/23 04:46:56;;;;;;;5.05;4.75;;;;;;;;;;4131506;28;20045;-64
2023/09/23 04:48:57;;;;;;;4.13;3.60;;;;;;;;;;4131601;28;20053;-64
2023/09/23 04:50:59;;;;;;;4.60;4.30;;;;;;;;;;4131268;28;20462;-64
2023/09/23 04:53:02;;;;;;;4.40;4.13;;;;;;;;;;4131547;28;20042;-64
2023/09/23 04:55:04;;;;;;;3.90;3.90;;;;;;;;;;4131525;28;20174;-65
2023/09/23 04:57:06;;;;;;;3.78;3.67;;;;;;;;;;4127776;28;20101;-64
2023/09/23 04:59:08;;;;;;;5.20;4.97;;;;;;;;;;4118178;28;20112;-64
2023/09/23 05:01:15;;;;;;;4.85;4.47;;;;;;;;;;4131602;28;20093;-65
2023/09/23 05:03:19;;;;;;;5.07;4.82;;;;;;;;;;4131413;28;20077;-64
2023/09/23 05:05:21;;;;;;;6.03;5.75;;;;;;;;;;4131314;28;20093;-64
2023/09/23 05:07:26;;;;;;;5.90;5.60;;;;;;;;;;4130620;28;20038;-65
2023/09/23 05:09:28;;;;;;;5.03;4.93;;;;;;;;;;4120549;28;20046;-64
2023/09/23 05:11:30;;;;;;;5.10;5.00;;;;;;;;;;4123039;28;20070;-64
2023/09/23 05:13:32;;;;;;;4.75;4.65;;;;;;;;;;4115463;28;20289;-64
2023/09/23 05:15:33;;;;;;;3.67;3.47;;;;;;;;;;4117389;28;20581;-64
2023/09/23 05:17:36;;;;;;;4.13;3.63;;;;;;;;;;4118595;28;21083;-64
2023/09/23 05:19:39;;;;;;;;;;;;;;;;;;4137821;28;20054;-64
2023/09/23 05:21:42;;;;;;;3.70;1.77;;;;;;;;;;4134734;28;19987;-65
2023/09/23 05:23:46;;;;;;;1.30;1.30;;;;;;;;;;4128410;28;20073;-65
2023/09/23 05:25:47;;;;;;;1.42;1.42;;;;;;;;;;4148307;28;20038;-64
2023/09/23 05:27:49;;;;;;;2.88;1.67;;;;;;;;;;4119900;28;20051;-65
2023/09/23 05:29:51;;;;;;;1.38;1.20;;;;;;;;;;4129509;28;20042;-66
2023/09/23 05:31:53;;;;;;;;;;;;;;;;;;4134887;28;20042;-66
2023/09/23 05:33:55;;;;;;;3.70;1.45;;;;;;;;;;4130666;28;19925;-66
2023/09/23 05:35:57;;;;;;;1.52;1.30;;;;;;;;;;4120987;28;20039;-65
2023/09/23 05:37:59;;;;;;;1.63;1.52;;;;;;;;;;4123752;28;20411;-66
2023/09/23 05:40:23;;;;;;;1.73;1.38;;;;;;;;;;4124494;28;20050;-66
2023/09/23 05:42:25;;;;;;;2.80;1.65;;;;;;;;;;4118309;28;20081;-66
2023/09/23 05:44:27;;;;;;;1.30;1.20;;;;;;;;;;4119238;28;20038;-66
2023/09/23 05:46:29;;;;;;;2.70;1.10;;;;;;;;;;4127334;28;20049;-65
2023/09/23 05:48:31;;;;;;;3.50;1.35;;;;;;;;;;4126592;28;20061;-65
2023/09/23 05:50:33;;;;;;;1.10;1.10;;;;;;;;;;4121526;28;20125;-66
2023/09/23 05:52:36;;;;;;;1.17;1.17;;;;;;;;;;4124458;28;20574;-66
2023/09/23 05:54:38;;;;;;;1.23;1.10;;;;;;;;;;4125128;28;20041;-66
2023/09/23 05:56:39;;;;;;;3.05;1.75;;;;;;;;;;4121318;28;20043;-65
2023/09/23 05:58:42;;;;;;;1.20;1.20;;;;;;;;;;4122328;28;20089;-66
2023/09/23 06:00:46;;;;;;;2.85;1.17;;;;;;;;;;4117834;28;20054;-66
2023/09/23 06:02:47;;;;;;;3.80;1.08;;;;;;;;;;4117792;28;20096;-66
2023/09/23 06:04:50;;;;;;;3.13;1.20;;;;;;;;;;4121826;28;20090;-65
2023/09/23 06:06:51;;;;;;;3.53;1.15;;;;;;;;;;4131907;28;20475;-66
2023/09/23 06:08:53;;;;;;;1.75;1.40;;;;;;;;;;4125765;28;20046;-66
2023/09/23 06:11:00;;;;;;;1.30;1.27;;;;;;;;;;4133639;28;20050;-66
2023/09/23 06:13:01;;;;;;;0.90;0.90;;;;;;;;;;4133710;28;20634;-65
2023/09/23 06:15:03;;;;;;;1.50;1.40;;;;;;;;;;4129978;28;20062;-66
2023/09/23 06:17:05;;;;;;;;;;;;;;;;;;4120072;28;20038;-65
2023/09/23 06:19:07;;;;;;;1.10;1.10;;;;;;;;;;4117543;28;19922;-66
2023/09/23 06:21:11;;;;;;;1.52;1.10;;;;;;;;;;4117718;28;20047;-66
2023/09/23 06:23:13;;;;;;;7.15;1.77;;;;;;;;;;4117592;28;20042;-66
2023/09/23 06:25:14;;;;;;;1.80;1.17;;;;;;;;;;4117196;28;20081;-66
2023/09/23 06:27:16;;;;;;;3.05;1.73;;;;;;;;;;4117243;28;20053;-66
2023/09/23 06:29:18;;;;;;;1.00;1.00;;;;;;;;;;4117311;28;20043;-67
2023/09/23 06:31:20;;;;;;;1.80;1.70;;;;;;;;;;4117404;28;20043;-66
2023/09/23 06:33:23;;;;;;;3.53;1.60;;;;;;;;;;4119278;28;20507;-66
2023/09/23 06:35:24;;;;;;;4.30;2.65;;;;;;;;;;4117291;28;20043;-66
2023/09/23 06:37:26;;;;;;;5.55;2.08;;;;;;;;;;4132922;28;20046;-66
2023/09/23 06:39:28;;;;;;;3.88;3.65;;;;;;;;;;4132997;28;20043;-65
2023/09/23 06:41:29;;;;;;;3.97;3.50;;;;;;;;;;4132482;28;20042;-66
2023/09/23 06:43:31;;;;;;;3.75;3.65;;;;;;;;;;4133015;28;20039;-65
2023/09/23 06:45:33;;;;;;;2.30;2.15;;;;;;;;;;4132981;28;20689;-66
2023/09/23 06:47:34;;;;;;;2.50;2.30;;;;;;;;;;4132173;28;20510;-67
2023/09/23 06:49:37;;;;;;;3.75;2.13;;;;;;;;;;4132473;28;20042;-66
2023/09/23 06:51:38;;;;;;;2.10;1.77;;;;;;;;;;4132361;28;20050;-67
2023/09/23 06:53:40;;;;;;;10.23;2.60;;;;;;;;;;4132910;28;20042;-66
2023/09/23 06:55:44;;;;;;;1.70;1.38;;;;;;;;;;4133056;28;20125;-66
2023/09/23 06:57:46;;;;;;;1.63;1.57;;;;;;;;;;4133349;28;20042;-66
2023/09/23 06:59:49;;;;;;;1.48;1.38;;;;;;;;;;4132889;28;20507;-66
2023/09/23 07:01:50;;;;;;;4.05;1.35;;;;;;;;;;4132852;28;20073;-67
2023/09/23 07:03:52;;;;;;;5.90;1.48;;;;;;;;;;4132945;28;20126;-67
2023/09/23 07:05:54;;;;;;;2.15;1.33;;;;;;;;;;4132992;28;20458;-67
2023/09/23 07:07:56;;;;;;;3.93;1.80;;;;;;;;;;4132812;28;20046;-67
2023/09/23 07:09:57;;;;;;;2.50;1.53;;;;;;;;;;4132743;28;20278;-67
2023/09/23 07:11:59;;;;;;;1.40;1.30;;;;;;;;;;4132512;28;20042;-67
2023/09/23 07:14:03;;;;;;;4.87;1.30;;;;;;;;;;4133082;28;20050;-68
2023/09/23 07:16:05;;;;;;;1.58;1.48;;;;;;;;;;4132777;28;20038;-68
2023/09/23 07:18:07;;;;;;;1.95;1.33;;;;;;;;;;4132854;28;20046;-67
2023/09/23 07:20:09;;;;;;;3.90;1.10;;;;;;;;;;4132745;28;20056;-67
2023/09/23 07:22:12;;;;;;;1.50;1.40;;;;;;;;;;4132810;28;20096;-67
2023/09/23 07:24:14;;;;;;;3.38;1.45;;;;;;;;;;4132667;28;20042;-67
2023/09/23 07:26:21;;;;;;;5.57;1.27;;;;;;;;;;4132597;28;20465;-67
2023/09/23 07:28:23;;;;;;;1.25;1.00;;;;;;;;;;4132391;28;20049;-67
2023/09/23 07:30:25;;;;;;;3.13;1.53;;;;;;;;;;4116603;28;20910;-67
2023/09/23 07:32:26;;;;;;;2.88;1.13;;;;;;;;;;4122848;28;20701;-67
2023/09/23 07:34:28;;;;;;;2.38;1.00;;;;;;;;;;4132539;28;20053;-67
2023/09/23 07:36:30;;;;;;;2.45;1.55;;;;;;;;;;4132568;28;20121;-67
2023/09/23 07:38:32;;;;;;;2.63;1.20;;;;;;;;;;4131705;28;20074;-67
2023/09/23 07:40:37;;;;;;;2.17;1.95;;;;;;;;;;4132168;28;20038;-66
2023/09/23 07:42:39;;;;;;;8.05;2.47;;;;;;;;;;4132423;28;20518;-67
2023/09/23 07:44:40;;;;;;;3.35;1.10;;;;;;;;;;4132242;28;20069;-67
2023/09/23 07:46:43;;;;;;;2.55;1.30;;;;;;;;;;4132062;28;20051;-67
2023/09/23 07:48:46;;;;;;;3.67;1.45;;;;;;;;;;4132142;28;20414;-66
2023/09/23 07:50:47;;;;;;;2.95;1.40;;;;;;;;;;4132194;28;20046;-66
2023/09/23 07:52:49;;;;;;;1.38;1.02;;;;;;;;;;4132150;28;20395;-66
2023/09/23 07:54:51;;;;;;;4.28;1.67;;;;;;;;;;4132333;28;20135;-66
2023/09/23 07:56:53;;;;;;;1.30;1.23;;;;;;;;;;4132253;28;20048;-66
2023/09/23 07:58:55;;;;;;;2.05;1.48;;;;;;;;;;4132071;28;20097;-66
2023/09/23 08:00:56;;;;;;;2.55;1.00;;;;;;;;;;4132091;28;20618;-66
2023/09/23 08:02:58;;;;;;;3.40;1.00;;;;;;;;;;4131909;28;20081;-66
2023/09/23 08:05:01;;;;;;;1.83;0.90;;;;;;;;;;4131873;28;20050;-66
2023/09/23 08:07:04;;;;;;;1.13;1.10;;;;;;;;;;4131956;28;20050;-65
2023/09/23 08:09:05;;;;;;;3.50;1.20;;;;;;;;;;4131917;28;20088;-66
2023/09/23 08:11:07;;;;;;;7.57;1.55;;;;;;;;;;4132159;28;20066;-66
2023/09/23 08:13:08;;;;;;;1.33;1.10;;;;;;;;;;4131934;28;20080;-67
2023/09/23 08:15:11;;;;;;;1.63;1.00;;;;;;;;;;4131927;28;20047;-66
2023/09/23 08:17:14;;;;;;;1.38;0.93;;;;;;;;;;4131847;28;20698;-66
2023/09/23 08:19:16;;;;;;;4.22;1.00;;;;;;;;;;4131889;28;20050;-66
2023/09/23 08:21:18;;;;;;;1.88;1.10;;;;;;;;;;4131807;28;20502;-66
2023/09/23 08:23:20;;;;;;;1.90;1.20;;;;;;;;;;4131742;28;20046;-66
2023/09/23 08:25:21;;;;;;;1.00;0.90;;;;;;;;;;4126068;28;20038;-66
2023/09/23 08:27:23;;;;;;;1.13;1.00;;;;;;;;;;4115582;28;20066;-66
2023/09/23 08:29:25;;;;;;;6.65;1.00;;;;;;;;;;4127809;28;20471;-66
2023/09/23 08:31:27;;;;;;;2.60;1.35;;;;;;;;;;4131753;28;20506;-67
2023/09/23 08:33:28;;;;;;;2.75;1.27;;;;;;;;;;4131627;28;20066;-66
2023/09/23 08:35:31;;;;;;;4.25;1.08;;;;;;;;;;4131460;28;20049;-66
2023/09/23 08:37:35;;;;;;;1.40;1.30;;;;;;;;;;4131634;28;20056;-66
2023/09/23 08:39:37;;;;;;;4.45;1.38;;;;;;;;;;4131303;28;20516;-66
2023/09/23 08:41:39;;;;;;;2.75;1.30;;;;;;;;;;4131537;28;20193;-67
2023/09/23 08:43:42;;;;;;;1.30;1.20;;;;;;;;;;4131525;28;20499;-66
2023/09/23 08:45:44;;;;;;;1.08;0.90;;;;;;;;;;4131387;28;20054;-66
2023/09/23 08:47:46;;;;;;;4.50;1.90;;;;;;;;;;4131179;28;20042;-67
2023/09/23 08:49:49;;;;;;;3.20;0.90;;;;;;;;;;4130543;28;20066;-67
2023/09/23 08:51:55;;;;;;;4.20;1.00;;;;;;;;;;4131291;28;20038;-66
2023/09/23 08:53:57;;;;;;;1.05;0.88;;;;;;;;;;4131439;28;20447;-67
2023/09/23 08:55:59;;;;;;;1.77;0.90;;;;;;;;;;4131331;28;20062;-67
2023/09/23 08:58:04;;;;;;;;;;;;;;;;;;4120832;28;20105;-67
2023/09/23 09:00:08;;;;;;;1.67;0.90;;;;;;;;;;4127727;28;20206;-67
2023/09/23 09:02:15;;;;;;;2.38;0.80;;;;;;;;;;4119362;28;20039;-67
2023/09/23 09:04:17;;;;;;;1.67;0.85;;;;;;;;;;4114847;28;20134;-66
2023/09/23 09:06:19;;;;;;;1.17;0.80;;;;;;;;;;4128123;28;20058;-66
2023/09/23 09:08:21;;;;;;;5.53;1.30;;;;;;;;;;4128214;28;20070;-67
2023/09/23 09:10:25;;;;;;;1.02;0.90;;;;;;;;;;4131351;28;20039;-67
2023/09/23 09:12:27;;;;;;;3.38;0.80;;;;;;;;;;4121654;28;20054;-67
2023/09/23 09:14:29;;;;;;;0.80;0.80;;;;;;;;;;4114448;28;20195;-67
2023/09/23 09:16:31;;;;;;;3.95;1.30;;;;;;;;;;4120684;28;20042;-67
2023/09/23 09:18:32;;;;;;;2.78;1.35;;;;;;;;;;4114499;28;20054;-67
2023/09/23 09:20:34;;;;;;;3.10;0.80;;;;;;;;;;4123974;28;20046;-67
2023/09/23 09:22:37;;;;;;;4.65;1.13;;;;;;;;;;4118197;28;20093;-67
2023/09/23 09:24:40;;;;;;;7.13;0.90;;;;;;;;;;4122301;28;20050;-68
2023/09/23 09:26:44;;;;;;;1.27;0.80;;;;;;;;;;4114970;28;20047;-67
2023/09/23 09:28:46;;;;;;;2.90;1.00;;;;;;;;;;4119636;28;20081;-67
2023/09/23 09:30:56;;;;;;;0.80;0.70;;;;;;;;;;4115723;28;20035;-67
2023/09/23 09:33:01;;;;;;;1.08;0.70;;;;;;;;;;4138182;28;20046;-67
2023/09/23 09:35:05;;;;;;;2.75;0.70;;;;;;;;;;4126123;28;20038;-67
2023/09/23 09:37:09;;;;;;;1.67;0.70;;;;;;;;;;4129589;28;20042;-67
2023/09/23 09:39:13;;;;;;;2.33;0.98;;;;;;;;;;4114835;28;20054;-67
2023/09/23 09:41:19;;;;;;;0.70;0.70;;;;;;;;;;4115034;28;20062;-67
2023/09/23 09:43:20;;;;;;;2.92;0.88;;;;;;;;;;4115030;28;20058;-67
2023/09/23 09:45:23;;;;;;;1.40;1.13;;;;;;;;;;4124459;28;20050;-67
2023/09/23 09:47:27;;;;;;;1.50;0.90;;;;;;;;;;4129438;28;20121;-67
2023/09/23 09:49:29;;;;;;;1.88;0.90;;;;;;;;;;4131003;28;20109;-67
2023/09/23 09:51:33;;;;;;;1.13;0.80;;;;;;;;;;4131034;28;20046;-67
2023/09/23 09:53:38;;;;;;;1.35;1.02;;;;;;;;;;4116025;28;20117;-67
2023/09/23 09:55:40;;;;;;;1.30;0.90;;;;;;;;;;4114411;28;20055;-68
2023/09/23 09:57:42;;;;;;;1.27;0.73;;;;;;;;;;4114219;28;20443;-67
2023/09/23 09:59:44;;;;;;;0.77;0.77;;;;;;;;;;4124406;28;20400;-67
2023/09/23 10:01:50;;;;;;;1.25;0.80;;;;;;;;;;4125083;28;20562;-68
2023/09/23 10:03:53;;;;;;;1.60;0.80;;;;;;;;;;4122687;28;20034;-67
2023/09/23 10:05:58;;;;;;;1.10;1.10;;;;;;;;;;4129571;28;20047;-68
2023/09/23 10:08:09;;;;;;;1.77;0.70;;;;;;;;;;4117658;28;20077;-67
2023/09/23 10:10:13;;;;;;;2.97;0.80;;;;;;;;;;4122758;28;20109;-67
2023/09/23 10:12:19;;;;;;;0.77;0.77;;;;;;;;;;4127234;28;20042;-67
2023/09/23 10:14:22;;;;;;;1.10;0.75;;;;;;;;;;4125898;28;20117;-67
2023/09/23 10:16:27;;;;;;;3.22;0.80;;;;;;;;;;4122726;28;20510;-67
2023/09/23 10:18:33;;;;;;;0.80;0.80;;;;;;;;;;4128463;28;20422;-67
2023/09/23 10:20:39;;;;;;;1.65;0.80;;;;;;;;;;4130658;28;20035;-67
2023/09/23 10:22:51;;;;;;;7.75;0.85;;;;;;;;;;4132651;28;20038;-68
2023/09/23 10:25:06;;;;;;;3.15;0.75;;;;;;;;;;4129078;28;20054;-67
2023/09/23 10:27:11;;;;;;;3.17;0.90;;;;;;;;;;4121128;28;20101;-67
2023/09/23 10:29:13;;;;;;;5.18;0.80;;;;;;;;;;4121016;28;20035;-67
2023/09/23 10:31:15;;;;;;;0.70;0.70;;;;;;;;;;4120181;28;20051;-67
2023/09/23 10:33:17;;;;;;;1.42;0.82;;;;;;;;;;4121609;28;20053;-66
2023/09/23 10:35:23;;;;;;;2.22;0.90;;;;;;;;;;4120313;28;20039;-67
2023/09/23 10:37:30;;;;;;;1.73;0.90;;;;;;;;;;4117289;28;20419;-66
2023/09/23 10:39:32;;;;;;;1.02;0.77;;;;;;;;;;4117025;28;20043;-66
2023/09/23 10:41:34;;;;;;;0.82;0.82;;;;;;;;;;4116364;28;20039;-67
2023/09/23 10:43:36;;;;;;;1.70;0.70;;;;;;;;;;4123108;28;20046;-66
2023/09/23 10:45:38;;;;;;;4.00;1.08;;;;;;;;;;4119992;28;20065;-66
2023/09/23 10:47:43;;;;;;;2.08;0.80;;;;;;;;;;4121882;28;20070;-67
2023/09/23 10:49:46;;;;;;;4.07;0.80;;;;;;;;;;4118568;28;20085;-66
2023/09/23 10:51:48;;;;;;;1.25;0.80;;;;;;;;;;4119726;28;20042;-67
2023/09/23 10:53:49;;;;;;;1.65;0.90;;;;;;;;;;4127003;28;20050;-66
2023/09/23 10:55:51;;;;;;;0.93;0.70;;;;;;;;;;4132526;28;20554;-66
2023/09/23 10:57:53;;;;;;;1.00;0.70;;;;;;;;;;4131423;28;20042;-66
2023/09/23 10:59:56;;;;;;;0.70;0.70;;;;;;;;;;4126349;28;20053;-66
2023/09/23 11:01:58;;;;;;;2.28;0.70;;;;;;;;;;4116442;28;20101;-67
2023/09/23 11:04:00;;;;;;;2.72;0.70;;;;;;;;;;4119908;28;20120;-66
2023/09/23 11:06:02;;;;;;;;;;;;;;;;;;4128074;28;20101;-67
2023/09/23 11:08:10;;;;;;;0.95;0.90;;;;;;;;;;4126574;28;19964;-67
2023/09/23 11:10:12;;;;;;;0.80;0.80;;;;;;;;;;4121040;28;20037;-67
2023/09/23 11:12:15;;;;;;;0.70;0.70;;;;;;;;;;4120253;28;20043;-67
2023/09/23 11:14:19;;;;;;;2.38;1.00;;;;;;;;;;4125584;28;20034;-67
2023/09/23 11:16:22;;;;;;;1.95;0.70;;;;;;;;;;4129746;28;20073;-67
2023/09/23 11:18:25;;;;;;;2.97;0.82;;;;;;;;;;4130572;28;20042;-67
2023/09/23 11:20:31;;;;;;;1.20;0.70;;;;;;;;;;4132683;28;20084;-67
2023/09/23 11:22:33;;;;;;;2.10;0.70;;;;;;;;;;4132749;28;20415;-67
2023/09/23 11:24:38;;;;;;;5.10;0.82;;;;;;;;;;4127085;28;20089;-67
2023/09/23 11:26:41;;;;;;;6.47;1.05;;;;;;;;;;4132415;28;20042;-67
2023/09/23 11:28:42;;;;;;;2.65;0.80;;;;;;;;;;4132594;28;20042;-67
2023/09/23 11:30:44;;;;;;;0.70;0.70;;;;;;;;;;4132547;28;20039;-67
2023/09/23 11:32:49;;;;;;;3.47;0.90;;;;;;;;;;4132111;28;20086;-67
2023/09/23 11:34:52;;;;;;;1.10;0.80;;;;;;;;;;4130674;28;20133;-67
2023/09/23 11:36:53;;;;;;;5.70;0.80;;;;;;;;;;4132523;28;20034;-66
2023/09/23 11:38:55;;;;;;;4.07;0.90;;;;;;;;;;4127584;28;20050;-67
2023/09/23 11:40:57;;;;;;;1.10;0.80;;;;;;;;;;4116045;28;20415;-67
2023/09/23 11:43:01;;;;;;;3.05;0.85;;;;;;;;;;4118585;28;20059;-67
2023/09/23 11:45:03;;;;;;;0.70;0.70;;;;;;;;;;4124549;28;20403;-67
2023/09/23 11:47:05;;;;;;;1.88;0.90;;;;;;;;;;4130848;28;20125;-67
2023/09/23 11:49:07;;;;;;;4.72;0.80;;;;;;;;;;4132077;28;20064;-67
2023/09/23 11:51:10;;;;;;;2.45;1.15;;;;;;;;;;4131802;28;20049;-67
2023/09/23 11:53:13;;;;;;;1.83;0.80;;;;;;;;;;4120844;28;20050;-68
2023/09/23 11:55:16;;;;;;;1.92;0.70;;;;;;;;;;4119630;28;20482;-68
2023/09/23 11:57:18;;;;;;;1.23;0.60;;;;;;;;;;4116349;28;20046;-67
2023/09/23 11:59:21;;;;;;;2.38;0.80;;;;;;;;;;4115948;28;20149;-67
2023/09/23 12:01:22;;;;;;;2.75;0.70;;;;;;;;;;4118514;28;20047;-68
2023/09/23 12:03:25;;;;;;;1.52;0.98;;;;;;;;;;4115737;28;20043;-67
2023/09/23 12:05:30;;;;;;;0.73;0.73;;;;;;;;;;4115676;28;20054;-68
2023/09/23 12:07:33;;;;;;;0.60;0.60;;;;;;;;;;4116169;28;20117;-67
2023/09/23 12:09:35;;;;;;;0.63;0.60;;;;;;;;;;4122892;28;20054;-67
2023/09/23 12:11:37;;;;;;;2.92;0.70;;;;;;;;;;4130287;28;20050;-67
2023/09/23 12:13:39;;;;;;;0.70;0.70;;;;;;;;;;4129871;28;20061;-67
2023/09/23 12:15:40;;;;;;;2.00;0.60;;;;;;;;;;4116060;28;20079;-67
2023/09/23 12:17:42;;;;;;;0.90;0.60;;;;;;;;;;4115778;28;20043;-67
2023/09/23 12:19:44;;;;;;;1.50;0.70;;;;;;;;;;4120143;28;20470;-67